Ashford, WA (98304)

4:55 PM PST on January 19, 2017 (GMT -0800)
Central Eatonville | | Change Station
Active Advisory: Small Craft Advisory

Elev 850 ft 46.87 °N, 122.27 °W | Updated 1 second ago

Ice Pellets
Ice Pellets
45.4 °F
Feels Like 45 °F
N
0.0
Wind Variable Wind from North
Gusts 0.0 mph

Today
High -- | Low -- °F
--% Chance of Precip.
Yesterday
High -- | Low -- °F
Precip. -- in
Pressure 29.52 in
Visibility 10.0 miles
Clouds Scattered Clouds 5000 ft
Scattered Clouds 10000 ft
Mostly Cloudy 13000 ft
Windchill 45 °F
Dew Point 41 °F
Humidity 84%
Rainfall 0.07 in
Snow Depth Not available.
7:45 AM 4:52 PM
Waning Gibbous, 49% visible
METAR KTCM 192358Z AUTO 18012KT 10SM SCT050 SCT100 BKN130 09/06 A2950 RMK AO2 RAB27E35 CIG 055 RWY34 SLP995 P0000 60004 T00900064 10096 20084 55004 $
Pressure 29.52 in
Visibility 10.0 miles
Clouds Scattered Clouds 5000 ft
Scattered Clouds 10000 ft
Mostly Cloudy 13000 ft
Windchill 45 °F
Dew Point 41 °F
Humidity 84%
Rainfall 0.07 in
Snow Depth Not available.
7:45 AM 4:52 PM
Waning Gibbous, 49% visible
METAR KTCM 192358Z AUTO 18012KT 10SM SCT050 SCT100 BKN130 09/06 A2950 RMK AO2 RAB27E35 CIG 055 RWY34 SLP995 P0000 60004 T00900064 10096 20084 55004 $

Get Your Daily Forecast Email!

Thanks for signing up!

Be on the lookout for a verification email in your inbox.

You'll start receiving the daily forecast at 8 AM.

×

10-Day Weather Forecast

Almanac

Astronomy

Jan. 19, 2017 Rise Set
Actual Time
Civil Twilight
Nautical Twilight
Astronomical Twilight
Moon
Length of Visible Light
Length of Day
Tomorrow will be .
, % of the Moon is Illuminated

Today's Extremes

State Highs State Lows

Community

WunderPhotos

Upload Photos

1,962,540 photos uploaded!

WunderBlog® & News

Nearby

Air Quality

  Air Quality AQ Index Pollutant
Not available.

Snow Depth

Station Depth Elevation

Earthquake Activity

City Distance Mag. Time & Date
Minimum magnitude displayed is 2.5.

Coastal Water Temperatures

Place Temperature

Stations

Nearby Weather Stations

Station Location Temp. Windchill Dew Point Humidity Wind Precip. Elev Updated Type
                   

Watches & Warnings

Small Craft Advisory
Issued: 2:50 PM PST Jan. 19, 2017 – National Weather Service

... Small Craft Advisory in effect until 4 PM PST Friday...

The National Weather Service in Seattle has issued a Small Craft
Advisory... which is in effect until 4 PM PST Friday.

* Winds... southeast 15 to 25 kt.

Precautionary/preparedness actions...

A Small Craft Advisory means that wind speeds of 21 to 33 knots are
expected to produce hazardous wave conditions to small craft.
Inexperienced mariners... especially those operating smaller vessels
should avoid navigating in these conditions.